Search for airport 
image banner adimage banner adimage banner ad
image banner ad

7C5 - Sig Field

Located in Montezuma, United States

ICAO - 7C5, IATA -

Data provided by Airmate  

General information

Coordinates: N41°32'54" W92°32'4"
Elevation is 929 feet MSL.
Magnetic variation is 03° East
View others Airports in Iowa

Operational data

Special qualification required
Current time UTC:
Current local time:
Weather at : KGGI - Grinnell Rgnl ( 25 km )
METAR: KGGI 181855Z AUTO 00000KT 10SM CLR 29/18 A2987 RMK AO2 T02910184
View NOTAMs / SUP AIP / TFR affecting this airport [VIEW]
Communications frequencies: [VIEW]

Runways:

RWY identifierQFULength (ft)Width (ft)SurfaceLDA (ft)
182600105GRASS
362600105GRASS

Airport contact information

Address: Montezuma United States

Satellite view of 7C5